Huvudsida
METAR-TAF:

METAR-TAF

Flygplatser :

OR Tambo internationella flygplats

Johannesburg, Sydafrika

latitud: 26-08S, longitud: 028-14E, höjd: 1694 m

Aktuellt väderrapport

Denna rapport gjordes för 26 minuter sedan, klockan 17:30 UTC
Vind 7 kt från väst, varierande mellan sydväst och väst/nordväst
Temperatur 16°C
Fuktighet 51%
Tryck 1027 hPa
Sikt 10 km eller mer
Inga moln under 1 500 m eller inga cumulonimbus

METAR: FAOR 231730Z 28007KT 230V300 CAVOK 16/06 Q1027 NOSIG

Tid: 19:56 (17:56 UTC)

Väderprognos

Denna rapport gjordes för 1 timme och 56 minuter sedan, klockan 16:00 UTC
Prognos gäller från 23 kl. 18 UTC till 24 kl. 24 UTC
Vind 3 kt varierande vindriktning
Sikt 10 km eller mer
Inga moln under 1 500 m eller inga cumulonimbus
Blir
från 24 kl. 07 UTC till 24 kl. 09 UTC
Vind 10 kt från ost
Blir
från 24 kl. 11 UTC till 24 kl. 13 UTC
Vind 3 kt varierande vindriktning

TAF: FAOR 231600Z 2318/2424 VRB03KT CAVOK TX23/2412Z TN10/2401Z BECMG 2407/2409 10010KT BECMG 2411/2413 VRB03KT

Aktuella väderrapporter och prognoser från 4000 flygplatser (METAR- och TAF-rapporter).

De tillgängliga stationerna syns som gula och röda prickar på kartan.

För musen över prickarna för att se namnen på stationerna.

Klicka sedan för att få väderrapporter och prognoser.

För att ändra kartan: Klicka på de gröna knapparna med ett svart kors på för att zooma in; den gröna knappen med ett streck på för att zooma ut; eller på de gröna pilarna för angränsande kartor.


METAR-TAF: